Date,TemperatureHighF,TemperatureAvgF,TemperatureLowF,DewpointHighF,DewpointAvgF,DewpointLowF,HumidityHigh,HumidityAvg,HumidityLow,PressureMaxIn,PressureMinIn,WindSpeedMaxMPH,WindSpeedAvgMPH,GustSpeedMaxMPH,PrecipitationSumIn
2013-11-1,88.3,80.0,76.1,74.8,72.5,71.0,87,78,60,30.00,29.88,4,1,14,0.00
2013-11-2,90.1,79.6,71.6,73.7,70.2,63.5,97,75,43,29.93,29.80,13,2,13,0.00
2013-11-3,83.3,75.1,68.6,66.4,63.2,60.3,84,67,53,30.01,29.88,19,5,19,0.00
2013-11-4,83.4,77.7,75.3,68.9,63.9,55.2,73,63,42,30.06,29.99,22,7,23,0.00
2013-11-5,82.2,78.0,74.5,72.0,68.9,64.9,90,74,62,30.08,30.00,22,7,22,0.09
2013-11-6,84.8,79.1,73.3,71.5,69.9,68.7,86,74,61,30.05,29.98,15,5,21,0.00
2013-11-7,86.2,77.0,69.5,72.2,69.7,65.9,93,79,53,30.00,29.91,12,2,12,0.00
2013-11-8,84.5,76.5,71.1,73.4,70.8,67.9,95,83,60,30.02,29.93,20,4,20,0.36
2013-11-9,81.0,77.1,73.8,73.8,72.3,70.7,95,85,76,30.10,29.99,21,6,21,0.48
2013-11-10,84.3,79.2,76.8,72.5,70.5,67.8,85,75,65,30.10,30.03,14,5,19,0.00
2013-11-11,84.3,78.6,71.3,71.7,69.2,66.6,89,73,64,30.10,30.03,16,4,17,0.00
2013-11-12,78.6,76.2,74.6,69.7,68.4,67.1,82,77,69,30.04,30.00,9,3,9,0.00
2013-11-13,78.2,72.6,69.9,68.0,64.2,57.8,88,75,62,30.19,29.98,23,6,25,0.09
2013-11-14,77.5,72.9,70.0,61.6,58.6,55.1,68,61,55,30.23,30.13,24,7,24,0.00
2013-11-15,80.9,77.3,73.7,69.9,67.2,61.0,88,71,61,30.13,30.01,15,6,21,0.04
2013-11-16,80.5,78.3,73.0,72.5,69.0,60.3,89,73,56,30.09,30.00,16,4,16,0.04
2013-11-17,84.7,79.4,75.5,73.0,70.7,68.5,83,75,65,30.07,29.99,16,3,16,0.00
2013-11-18,85.0,77.7,71.4,73.0,70.7,69.2,93,80,63,30.02,29.91,11,1,11,0.00
2013-11-19,86.0,76.7,72.2,73.9,71.3,69.9,93,84,62,29.94,29.84,10,2,10,0.00
2013-11-20,82.3,76.2,70.2,75.6,72.0,69.0,97,87,74,30.05,29.91,13,1,13,0.35
2013-11-21,83.1,75.9,71.7,75.4,72.4,70.2,97,89,68,30.12,30.03,15,3,18,1.13
2013-11-22,82.5,77.5,72.5,72.8,71.3,69.8,96,81,71,30.14,30.05,18,5,18,0.69
2013-11-23,83.6,77.9,72.9,72.5,71.0,69.5,90,79,68,30.06,29.96,15,3,15,0.00
2013-11-24,82.8,74.2,68.1,71.4,67.8,64.1,95,81,59,30.13,29.97,21,4,21,0.23
2013-11-25,77.5,73.7,71.8,70.0,65.5,60.7,91,76,67,30.18,30.03,25,8,25,0.12
2013-11-26,83.3,77.4,72.1,75.6,73.0,69.3,93,86,77,30.03,29.82,21,4,21,0.14
2013-11-27,78.5,71.6,59.6,75.5,64.8,52.9,97,80,52,30.11,29.78,19,4,19,1.03
2013-11-28,74.3,62.4,48.3,61.6,53.3,45.2,89,73,56,30.23,30.10,19,5,19,0.00
2013-11-29,78.0,70.4,61.0,64.2,59.4,55.1,89,69,54,30.26,30.17,20,4,20,0.00
2013-11-30,76.8,70.5,61.6,70.1,63.6,59.5,94,79,66,30.19,30.09,18,4,18,0.22